Terminal Aerodrome Forecast
Issued by NWS Charleston, WV

Current Version | Previous Version | Graphics & Text | Print | Product List | Glossary On
Versions: 1 2 3 4 5 6 7 8 9 10 11 12 13 14 15 16 17 18 19 20 21 22 23 24 25 26 27 28 29 30 31
000
FTUS41 KRLX 222343
TAFHTS
TAF
KHTS 222343Z 2300/2324 17004KT P6SM OVC015
     FM230200 00000KT 5SM BR BKN035
     FM230300 00000KT 1SM BR BKN035
     FM231400 00000KT 3SM BR BKN025
     FM231600 21005KT P6SM BKN025
     FM232100 20005KT P6SM BKN035=

USA.gov is the U.S. government's official web portal to all federal, state and local government web resources and services.